createdAt,value
2022-12-15T00:00:19.049Z,0
2022-12-15T00:02:20.808Z,0
2022-12-15T00:04:22.899Z,0
2022-12-15T00:06:24.542Z,0
2022-12-15T00:08:26.232Z,0
2022-12-15T00:12:29.959Z,0
2022-12-15T00:14:31.731Z,0
2022-12-15T00:16:33.104Z,0
2022-12-15T00:18:34.547Z,0
2022-12-15T00:20:35.829Z,0
2022-12-15T00:22:37.595Z,0
2022-12-15T00:24:39.558Z,0
2022-12-15T00:26:41.438Z,0
2022-12-15T00:28:42.850Z,0
2022-12-15T00:32:46.147Z,0
2022-12-15T00:34:47.564Z,0
2022-12-15T00:36:49.695Z,0
2022-12-15T00:38:51.491Z,0
2022-12-15T00:42:55.331Z,0
2022-12-15T00:44:56.747Z,0
2022-12-15T00:46:57.990Z,0
2022-12-15T00:48:59.436Z,0.702
2022-12-15T00:51:00.832Z,0
2022-12-15T00:53:02.462Z,0
2022-12-15T00:55:04.478Z,0
2022-12-15T00:57:06.114Z,0
2022-12-15T00:59:08.062Z,0
2022-12-15T01:01:10.085Z,0
2022-12-15T01:05:13.403Z,0
2022-12-15T01:07:14.571Z,0
2022-12-15T01:09:15.859Z,0
2022-12-15T01:11:17.164Z,0
2022-12-15T01:15:20.919Z,0
2022-12-15T01:17:22.281Z,0
2022-12-15T01:19:23.757Z,0
2022-12-15T01:21:25.721Z,0
2022-12-15T01:25:28.853Z,0
2022-12-15T01:27:30.185Z,0
2022-12-15T01:29:31.875Z,0
2022-12-15T01:31:33.262Z,0
2022-12-15T01:33:34.653Z,0
2022-12-15T01:35:36.099Z,0
2022-12-15T01:37:38.191Z,0
2022-12-15T01:39:40.364Z,0
2022-12-15T01:41:41.771Z,0
2022-12-15T01:43:43.694Z,0
2022-12-15T01:45:44.952Z,0
2022-12-15T01:47:46.734Z,0
2022-12-15T01:49:47.977Z,0
2022-12-15T01:51:49.257Z,0
2022-12-15T01:53:51.141Z,0
2022-12-15T01:57:54.967Z,0
2022-12-15T01:59:57.025Z,0
2022-12-15T02:01:58.580Z,0
2022-12-15T02:04:00.274Z,0
2022-12-15T02:08:03.238Z,0
2022-12-15T02:10:05.363Z,0
2022-12-15T02:12:07.190Z,0
2022-12-15T02:14:08.788Z,0
2022-12-15T02:16:10.182Z,0
2022-12-15T02:18:11.274Z,0
2022-12-15T02:20:12.563Z,0
2022-12-15T02:22:14.303Z,0
2022-12-15T02:24:15.640Z,0
2022-12-15T02:26:16.789Z,0
2022-12-15T02:28:17.969Z,0
2022-12-15T02:30:19.175Z,0
2022-12-15T02:32:21.176Z,0
2022-12-15T02:34:22.351Z,0
2022-12-15T02:36:24.205Z,0
2022-12-15T02:38:25.629Z,0
2022-12-15T02:40:27.216Z,0
2022-12-15T02:42:28.584Z,0
2022-12-15T02:44:30.224Z,0
2022-12-15T02:46:31.996Z,0
2022-12-15T02:48:33.660Z,0
2022-12-15T02:50:35.461Z,0
2022-12-15T02:52:37.096Z,0
2022-12-15T02:54:38.324Z,0
2022-12-15T02:56:39.519Z,0
2022-12-15T02:58:41.258Z,0
2022-12-15T03:00:43.003Z,0
2022-12-15T03:02:44.728Z,0
2022-12-15T03:04:46.470Z,0
2022-12-15T03:06:48.570Z,0
2022-12-15T03:08:50.170Z,0
2022-12-15T03:10:52.013Z,0
2022-12-15T03:12:53.216Z,0
2022-12-15T03:14:54.768Z,0
2022-12-15T03:16:56.207Z,0
2022-12-15T03:18:57.591Z,0
2022-12-15T03:20:58.886Z,0
2022-12-15T03:23:00.500Z,0
2022-12-15T03:25:02.132Z,0
2022-12-15T03:27:04.053Z,0
2022-12-15T03:29:05.675Z,0
2022-12-15T03:31:06.942Z,0
2022-12-15T03:33:08.998Z,0
2022-12-15T03:35:11.030Z,0
2022-12-15T03:37:12.349Z,0
2022-12-15T03:39:13.569Z,0
2022-12-15T03:41:15.591Z,0
2022-12-15T03:41:59.604Z,0
2022-12-15T03:44:00.810Z,0
2022-12-15T03:46:02.711Z,0
2022-12-15T03:48:04.320Z,0
2022-12-15T03:50:05.628Z,0
2022-12-15T03:52:07.358Z,0
2022-12-15T03:54:08.782Z,0
2022-12-15T03:56:10.074Z,0
2022-12-15T03:58:11.412Z,0
2022-12-15T04:00:13.198Z,0
2022-12-15T04:02:14.897Z,0
2022-12-15T04:04:16.076Z,0
2022-12-15T04:06:17.757Z,0
2022-12-15T04:08:19.146Z,0
2022-12-15T04:10:20.560Z,0
2022-12-15T04:12:22.618Z,0
2022-12-15T04:16:25.178Z,0
2022-12-15T04:18:27.117Z,0
2022-12-15T04:20:28.902Z,0
2022-12-15T04:22:30.087Z,0
2022-12-15T04:26:32.896Z,0
2022-12-15T04:28:34.649Z,0
2022-12-15T04:30:36.461Z,0
2022-12-15T04:32:37.743Z,0
2022-12-15T04:34:38.987Z,0
2022-12-15T04:38:45.543Z,0
2022-12-15T04:40:43.519Z,0
2022-12-15T04:42:45.403Z,0
2022-12-15T04:44:50.022Z,0
2022-12-15T04:46:48.056Z,0
2022-12-15T04:48:49.712Z,0
2022-12-15T04:50:51.246Z,0
2022-12-15T04:52:52.504Z,0
2022-12-15T04:54:54.060Z,0
2022-12-15T04:58:57.362Z,0
2022-12-15T05:00:59.219Z,0
2022-12-15T05:03:00.655Z,0
2022-12-15T05:05:01.945Z,0
2022-12-15T05:09:06.059Z,0
2022-12-15T05:11:07.606Z,0
2022-12-15T05:13:09.063Z,0
2022-12-15T05:15:10.471Z,0
2022-12-15T05:17:11.689Z,0
2022-12-15T05:19:13.768Z,0
2022-12-15T05:21:14.949Z,0
2022-12-15T05:23:16.661Z,0
2022-12-15T05:25:18.647Z,0
2022-12-15T05:27:20.682Z,0
2022-12-15T05:29:22.102Z,0
2022-12-15T05:31:23.548Z,0
2022-12-15T05:33:25.380Z,0
2022-12-15T05:37:28.835Z,0
2022-12-15T05:41:32.075Z,0
2022-12-15T05:43:34.300Z,0
2022-12-15T05:45:35.186Z,0
2022-12-15T05:47:36.879Z,0
2022-12-15T05:51:40.228Z,0
2022-12-15T05:53:42.142Z,0
2022-12-15T05:55:43.674Z,0
2022-12-15T05:57:45.453Z,0
2022-12-15T05:59:47.170Z,0
2022-12-15T06:01:48.707Z,0
2022-12-15T06:03:50.079Z,0
2022-12-15T06:05:56.215Z,0
2022-12-15T06:07:53.134Z,0
2022-12-15T06:09:54.759Z,0
2022-12-15T06:13:58.384Z,0
2022-12-15T06:15:59.615Z,0
2022-12-15T06:18:01.300Z,0
2022-12-15T06:20:03.152Z,0
2022-12-15T06:24:06.544Z,0
2022-12-15T06:26:08.270Z,0
2022-12-15T06:28:09.780Z,0
2022-12-15T06:30:11.152Z,0
2022-12-15T06:34:14.501Z,0
2022-12-15T06:36:15.741Z,0
2022-12-15T06:38:16.884Z,0
2022-12-15T06:40:18.263Z,0
2022-12-15T06:42:19.619Z,0
2022-12-15T06:44:21.442Z,0
2022-12-15T06:46:22.661Z,0
2022-12-15T06:52:28.567Z,0
2022-12-15T06:58:33.827Z,0
2022-12-15T07:00:35.339Z,1.123
2022-12-15T07:12:44.783Z,0.14
2022-12-15T07:18:49.130Z,0
2022-12-15T07:24:54.546Z,1.263
2022-12-15T07:35:03.368Z,0
2022-12-15T07:37:04.803Z,0
2022-12-15T07:39:06.527Z,0.28
2022-12-15T08:17:35.623Z,1.684
2022-12-15T08:25:41.869Z,2.246
2022-12-15T08:29:52.044Z,0
2022-12-15T08:56:07.649Z,0
2022-12-15T09:12:20.490Z,0
2022-12-15T09:16:23.521Z,0
2022-12-15T09:18:25.296Z,0
2022-12-15T09:46:50.133Z,0
2022-12-15T09:58:57.796Z,0
2022-12-15T10:07:02.822Z,2.106
2022-12-15T10:19:11.603Z,0
2022-12-15T10:25:16.470Z,0
2022-12-15T10:27:17.739Z,0.561
2022-12-15T10:32:04.777Z,0.842
2022-12-15T11:04:29.680Z,0.982
2022-12-15T11:30:50.848Z,4.633
2022-12-15T11:36:55.736Z,2.808
2022-12-15T11:38:57.782Z,2.106
2022-12-15T11:45:02.395Z,0
2022-12-15T11:51:08.142Z,0
2022-12-15T11:53:10.287Z,2.386
2022-12-15T12:05:22.392Z,2.527
2022-12-15T12:07:23.801Z,3.369
2022-12-15T12:19:35.027Z,2.246
2022-12-15T12:23:37.675Z,4.212
2022-12-15T12:29:41.162Z,4.492
2022-12-15T12:35:46.646Z,2.527
2022-12-15T12:39:50.014Z,4.071
2022-12-15T12:49:58.930Z,3.229
2022-12-15T12:52:00.760Z,0.14
2022-12-15T13:08:12.817Z,0.842
2022-12-15T13:10:14.652Z,1.684
2022-12-15T13:20:22.494Z,4.492
2022-12-15T13:22:23.836Z,2.527
2022-12-15T13:24:25.735Z,3.088
2022-12-15T13:26:27.707Z,1.404
2022-12-15T13:28:28.959Z,1.825
2022-12-15T13:30:30.333Z,1.825
2022-12-15T13:32:32.019Z,3.79
2022-12-15T13:34:33.907Z,3.088
2022-12-15T13:36:35.501Z,0.702
2022-12-15T13:38:36.854Z,2.106
2022-12-15T13:40:37.952Z,2.667
2022-12-15T13:42:52.830Z,2.386
2022-12-15T13:44:41.180Z,2.667
2022-12-15T13:46:42.333Z,1.544
2022-12-15T13:48:44.100Z,1.965
2022-12-15T13:50:45.468Z,2.106
2022-12-15T13:53:17.693Z,1.404
2022-12-15T13:56:50.798Z,1.684
2022-12-15T13:58:51.420Z,1.544
2022-12-15T14:00:53.204Z,0.14
2022-12-15T14:02:54.593Z,0
2022-12-15T14:06:58.924Z,0.14
2022-12-15T14:08:59.859Z,0.14
2022-12-15T14:11:11.406Z,0.28
2022-12-15T14:13:15.060Z,1.263
2022-12-15T14:15:05.529Z,1.123
2022-12-15T14:17:06.597Z,0
2022-12-15T14:19:08.507Z,0.28
2022-12-15T14:21:10.269Z,0
2022-12-15T14:23:11.672Z,0.28
2022-12-15T14:25:12.966Z,0.561
2022-12-15T14:27:14.329Z,0.28
2022-12-15T14:29:15.735Z,1.544
2022-12-15T14:31:17.219Z,0.702
2022-12-15T14:33:18.501Z,0.702
2022-12-15T14:35:19.805Z,0.421
2022-12-15T14:37:21.755Z,0.28
2022-12-15T14:39:22.988Z,0
2022-12-15T14:41:24.514Z,0
2022-12-15T14:43:25.790Z,0
2022-12-15T14:45:27.732Z,0
2022-12-15T14:47:29.424Z,0
2022-12-15T14:49:31.363Z,0
2022-12-15T14:51:32.770Z,0
2022-12-15T14:53:34.470Z,0
2022-12-15T14:55:36.369Z,0
2022-12-15T14:57:38.284Z,0
2022-12-15T14:59:40.097Z,0.702
2022-12-15T15:01:42.025Z,1.544
2022-12-15T15:03:43.836Z,0.14
2022-12-15T15:05:45.422Z,1.825
2022-12-15T15:07:47.030Z,2.527
2022-12-15T15:09:48.115Z,2.246
2022-12-15T15:11:50.171Z,2.106
2022-12-15T15:13:52.281Z,0
2022-12-15T15:15:54.202Z,0.28
2022-12-15T15:17:55.676Z,0.14
2022-12-15T15:19:57.179Z,0.14
2022-12-15T15:21:58.353Z,0.702
2022-12-15T15:24:00.097Z,1.544
2022-12-15T15:26:01.711Z,0
2022-12-15T15:28:03.096Z,0
2022-12-15T15:30:04.902Z,0.982
2022-12-15T15:32:06.831Z,0
2022-12-15T15:34:08.546Z,0
2022-12-15T15:36:10.151Z,0.14
2022-12-15T15:38:12.118Z,2.948
2022-12-15T15:40:13.735Z,0.982
2022-12-15T15:42:15.123Z,0.421
2022-12-15T15:44:16.552Z,0
2022-12-15T15:46:18.373Z,0
2022-12-15T15:48:19.691Z,0
2022-12-15T15:50:21.528Z,0
2022-12-15T15:52:23.431Z,0
2022-12-15T15:54:25.482Z,0
2022-12-15T15:56:26.856Z,0
2022-12-15T15:58:28.445Z,0
2022-12-15T16:00:29.913Z,0
2022-12-15T16:02:31.307Z,0
2022-12-15T16:04:33.095Z,0
2022-12-15T16:06:34.398Z,0
2022-12-15T16:08:35.994Z,0
2022-12-15T16:10:37.339Z,0
2022-12-15T16:12:39.029Z,0
2022-12-15T16:14:40.275Z,0
2022-12-15T16:16:41.619Z,0
2022-12-15T16:18:43.039Z,0
2022-12-15T16:20:44.255Z,0
2022-12-15T16:22:45.580Z,0
2022-12-15T16:24:47.489Z,0
2022-12-15T16:26:49.098Z,0
2022-12-15T16:28:51.140Z,0
2022-12-15T16:30:52.381Z,0
2022-12-15T16:32:53.556Z,0
2022-12-15T16:34:55.176Z,0
2022-12-15T16:36:56.557Z,0
2022-12-15T16:38:57.995Z,0
2022-12-15T16:40:59.701Z,0
2022-12-15T16:43:01.137Z,0
2022-12-15T16:45:02.333Z,0
2022-12-15T16:47:03.845Z,0
2022-12-15T16:49:05.023Z,0
2022-12-15T16:51:06.677Z,0
2022-12-15T16:53:08.453Z,0
2022-12-15T16:55:09.806Z,0
2022-12-15T16:57:11.413Z,0
2022-12-15T16:59:32.320Z,0
2022-12-15T17:01:14.376Z,0
2022-12-15T17:03:16.017Z,0
2022-12-15T17:05:17.196Z,0
2022-12-15T17:07:20.485Z,0
2022-12-15T17:09:20.576Z,0
2022-12-15T17:11:22.243Z,0
2022-12-15T17:13:24.172Z,0
2022-12-15T17:14:08.216Z,0
2022-12-15T17:16:09.731Z,0
2022-12-15T17:18:10.895Z,0
2022-12-15T17:20:28.858Z,0
2022-12-15T17:22:14.373Z,0
2022-12-15T17:24:15.690Z,0
2022-12-15T17:26:27.913Z,0
2022-12-15T17:28:18.939Z,0
2022-12-15T17:30:20.602Z,0
2022-12-15T17:32:21.769Z,0
2022-12-15T17:34:23.341Z,0
2022-12-15T17:36:24.849Z,0
2022-12-15T17:40:28.024Z,0
2022-12-15T17:42:29.524Z,0
2022-12-15T17:44:33.368Z,0
2022-12-15T17:46:32.855Z,0
2022-12-15T17:50:35.674Z,0
2022-12-15T17:52:37.329Z,0
2022-12-15T17:54:39.437Z,0
2022-12-15T17:56:40.679Z,0
2022-12-15T17:58:42.419Z,0.14
2022-12-15T18:00:48.997Z,1.544
2022-12-15T18:02:45.531Z,1.123
2022-12-15T18:04:47.324Z,0.28
2022-12-15T18:06:48.456Z,0.561
2022-12-15T18:08:49.959Z,0
2022-12-15T18:10:51.713Z,0
2022-12-15T18:12:53.128Z,0
2022-12-15T18:14:54.291Z,0
2022-12-15T18:16:55.502Z,0.982
2022-12-15T18:18:57.232Z,2.527
2022-12-15T18:22:59.949Z,0.702
2022-12-15T18:25:01.638Z,0.982
2022-12-15T18:27:02.879Z,0.421
2022-12-15T18:29:04.541Z,1.544
2022-12-15T18:33:07.693Z,1.123
2022-12-15T18:35:09.364Z,1.123
2022-12-15T18:37:11.229Z,0
2022-12-15T18:39:13.141Z,0
2022-12-15T18:41:15.243Z,0.14
2022-12-15T18:43:16.969Z,0
2022-12-15T18:45:18.131Z,0
2022-12-15T18:47:19.994Z,0
2022-12-15T18:49:21.414Z,0
2022-12-15T18:51:22.599Z,0
2022-12-15T18:53:23.940Z,0
2022-12-15T18:55:25.391Z,0
2022-12-15T18:57:26.645Z,0
2022-12-15T18:59:27.811Z,0
2022-12-15T19:01:29.551Z,0
2022-12-15T19:05:32.818Z,0
2022-12-15T19:07:34.152Z,0
2022-12-15T19:11:37.061Z,0
2022-12-15T19:15:40.324Z,0
2022-12-15T19:17:41.857Z,0
2022-12-15T19:19:43.515Z,0
2022-12-15T19:21:45.107Z,0
2022-12-15T19:23:46.905Z,0
2022-12-15T19:25:48.256Z,0
2022-12-15T19:27:49.648Z,0
2022-12-15T19:29:51.399Z,0
2022-12-15T19:31:52.980Z,0
2022-12-15T19:33:54.504Z,0
2022-12-15T19:35:55.671Z,0
2022-12-15T19:37:57.737Z,0
2022-12-15T19:39:59.751Z,0
2022-12-15T19:42:01.751Z,0
2022-12-15T19:44:03.774Z,0
2022-12-15T19:48:06.792Z,0
2022-12-15T19:50:08.605Z,0
2022-12-15T19:52:09.805Z,0.421
2022-12-15T19:54:11.861Z,0
2022-12-15T19:58:15.540Z,0
2022-12-15T20:00:16.895Z,0
2022-12-15T20:02:18.661Z,0
2022-12-15T20:04:23.991Z,0.14
2022-12-15T20:06:21.945Z,0
2022-12-15T20:08:23.462Z,0
2022-12-15T20:10:29.783Z,0
2022-12-15T20:12:26.577Z,0
2022-12-15T20:14:28.521Z,0
2022-12-15T20:16:30.453Z,0
2022-12-15T20:20:33.145Z,0
2022-12-15T20:22:34.447Z,0
2022-12-15T20:24:36.124Z,0
2022-12-15T20:26:37.941Z,0
2022-12-15T20:30:40.495Z,0
2022-12-15T20:32:42.123Z,0
2022-12-15T20:34:43.769Z,0
2022-12-15T20:36:45.840Z,0
2022-12-15T20:40:49.258Z,0
2022-12-15T20:42:50.815Z,0
2022-12-15T20:44:54.164Z,0
2022-12-15T20:46:54.967Z,0
2022-12-15T20:48:56.799Z,0
2022-12-15T20:50:58.052Z,0
2022-12-15T20:52:59.637Z,0
2022-12-15T20:55:01.086Z,0
2022-12-15T20:57:02.537Z,0
2022-12-15T20:59:03.716Z,0
2022-12-15T21:03:07.223Z,0.421
2022-12-15T21:05:08.731Z,0.421
2022-12-15T21:07:10.781Z,0.14
2022-12-15T21:09:11.954Z,0
2022-12-15T21:13:15.274Z,0
2022-12-15T21:15:16.458Z,0
2022-12-15T21:17:17.839Z,0
2022-12-15T21:19:21.133Z,0
2022-12-15T21:23:22.537Z,0
2022-12-15T21:25:24.624Z,0
2022-12-15T21:27:26.312Z,0
2022-12-15T21:29:28.340Z,0
2022-12-15T21:31:30.427Z,0
2022-12-15T21:33:31.652Z,0
2022-12-15T21:35:33.233Z,0
2022-12-15T21:37:34.456Z,0
2022-12-15T21:39:36.295Z,0
2022-12-15T21:41:37.397Z,0
2022-12-15T21:43:39.011Z,0
2022-12-15T21:45:40.311Z,1.123
2022-12-15T21:47:41.574Z,1.263
2022-12-15T21:49:43.277Z,0
2022-12-15T21:51:44.660Z,1.684
2022-12-15T21:55:48.158Z,0.842
2022-12-15T21:57:49.389Z,0.28
2022-12-15T21:59:51.039Z,0.842
2022-12-15T22:01:53.198Z,0
2022-12-15T22:05:56.262Z,0
2022-12-15T22:07:58.107Z,0
2022-12-15T22:09:59.269Z,0
2022-12-15T22:12:00.497Z,0
2022-12-15T22:14:02.293Z,0
2022-12-15T22:16:03.796Z,0
2022-12-15T22:18:05.399Z,0
2022-12-15T22:20:07.247Z,0
2022-12-15T22:22:08.686Z,0
2022-12-15T22:24:10.158Z,0
2022-12-15T22:26:12.186Z,0
2022-12-15T22:28:14.168Z,0
2022-12-15T22:30:15.605Z,0
2022-12-15T22:32:17.108Z,0
2022-12-15T22:34:19.028Z,0
2022-12-15T22:38:22.167Z,0
2022-12-15T22:40:23.511Z,0
2022-12-15T22:42:24.722Z,0
2022-12-15T22:44:25.850Z,0
2022-12-15T22:46:26.959Z,0
2022-12-15T22:48:28.529Z,0
2022-12-15T22:50:30.031Z,0
2022-12-15T22:52:31.485Z,0
2022-12-15T22:54:33.353Z,0
2022-12-15T22:56:34.669Z,0
2022-12-15T22:58:35.898Z,0
2022-12-15T23:00:37.444Z,0
2022-12-15T23:02:38.863Z,0
2022-12-15T23:04:40.541Z,0
2022-12-15T23:06:42.311Z,0
2022-12-15T23:08:43.734Z,0
2022-12-15T23:10:45.313Z,0
2022-12-15T23:12:46.682Z,0
2022-12-15T23:14:48.716Z,0
2022-12-15T23:16:50.133Z,0
2022-12-15T23:18:52.189Z,0
2022-12-15T23:20:53.591Z,0
2022-12-15T23:22:55.335Z,0
2022-12-15T23:24:56.774Z,0
2022-12-15T23:26:58.321Z,0
2022-12-15T23:29:00.353Z,0
2022-12-15T23:31:02.290Z,0
2022-12-15T23:33:03.855Z,0
2022-12-15T23:35:05.452Z,0
2022-12-15T23:37:06.855Z,0
2022-12-15T23:39:08.568Z,0
2022-12-15T23:41:10.011Z,0
2022-12-15T23:43:12.014Z,0
2022-12-15T23:45:13.788Z,0
2022-12-15T23:47:15.068Z,0
2022-12-15T23:49:16.222Z,0
2022-12-15T23:51:17.360Z,0
2022-12-15T23:53:19.057Z,0
2022-12-15T23:55:20.214Z,0
2022-12-15T23:57:21.387Z,0
2022-12-15T23:59:22.576Z,0
